• Join FlightAware (Why Join?)
  • Login
  • US Flag 
08:23PM EDT


 

Airport Tracker/Info


-or-


 

Live Flight TrackerFlight Track Log ✈ CES2265 ✈ 06-Jul-2013 ✈ ZLIC / INC - ZLXY / XIY

Flight Track Log - Related Links

Times and Time Zones

All times are in EDT time to prevent confusion due to time zone crossing. See the CES2265 flight status page for this flight to view local times or setup timezone preferences in your user account.

Time Position Orientation Groundspeed Altitude Reporting Facility
EDT Latitude Longitude Course Direction KTS MPH feet Rate Location/Type
06:30AM 36.6819 107.4242 153° Southeast  Level Estimated
06:31AM 36.5996 107.4745 154° Southeast  Level Estimated
06:32AM 36.5173 107.5248 154° Southeast  Level Estimated
06:33AM 36.4350 107.5750 154° Southeast  Level Estimated
06:34AM 36.3526 107.6250 154° Southeast  Level Estimated
06:35AM 36.2703 107.6750 154° Southeast  Level Estimated
06:36AM 36.1879 107.7248 154° Southeast  Level Estimated
06:37AM 36.1055 107.7745 154° Southeast  Level Estimated
06:38AM 36.0231 107.8242 154° Southeast  Level Estimated
06:39AM 35.9406 107.8737 154° Southeast  Level Estimated
06:40AM 35.8582 107.9231 154° Southeast  Level Estimated
06:41AM 35.7757 107.9724 154° Southeast  Level Estimated
06:42AM 35.6932 108.0217 154° Southeast  Level Estimated
06:43AM 35.6107 108.0708 154° Southeast  Level Estimated
06:44AM 35.5281 108.1198 154° Southeast  Level Estimated
06:45AM 35.4456 108.1687 154° Southeast  Level Estimated
06:46AM 35.3630 108.2175 154° Southeast  Level Estimated
06:47AM 35.2804 108.2663 154° Southeast  Level Estimated
06:48AM 35.1978 108.3149 154° Southeast  Level Estimated
06:49AM 35.1151 108.3634 154° Southeast  Level Estimated
06:50AM 35.0325 108.4118 154° Southeast  Level Estimated
06:51AM 34.9498 108.4601 154° Southeast  Level Estimated
06:52AM 34.8671 108.5083 154° Southeast  Level Estimated
06:53AM 34.7844 108.5565 154° Southeast  Level Estimated
06:54AM 34.7016 108.6045 154° Southeast  Level Estimated
06:55AM 34.6189 108.6524 155° Southeast  Level Estimated
06:56AM 34.5343 108.7013 155° Southeast  Level Estimated
06:57AM 34.4497 108.7501 155° Southeast  Level Estimated
06:58AM 34.4471 108.7516 155° Southeast  Level Estimated
06:59AM 34.4471 108.7516 121° Southeast  Level Estimated
07:00AM 34.4471 108.7516 121° Southeast  Level Estimated
07:01AM 34.4471 108.7516 121° Southeast  Level Estimated
07:02AM 34.4471 108.7516 121° Southeast  Level Estimated
07:03AM 34.4471 108.7516 121° Southeast  Level Estimated
07:04AM 34.4471 108.7516 121° Southeast  Level Estimated
07:05AM 34.4471 108.7516 121° Southeast  Level Estimated
07:06AM 34.4471 108.7516 121° Southeast  Level Estimated
07:07AM 34.4471 108.7516 121° Southeast  Level Estimated
07:08AM 34.4471 108.7516 121° Southeast  Level Estimated
07:09AM 34.4471 108.7516 121° Southeast  Level Estimated
07:10AM 34.4471 108.7516 121° Southeast  Level Estimated
07:11AM 34.4471 108.7516 121° Southeast  Level Estimated
07:12AM 34.4471 108.7516 121° Southeast  Level Estimated